sensor_id;sensor_type;location;lat;lon;timestamp;pressure;altitude;pressure_sealevel;temperature;humidity
82668;BME280;72691;51.374;-0.176;2023-11-21T00:01:40;101084.68;;;13.62;50.70
82668;BME280;72691;51.374;-0.176;2023-11-21T00:04:05;101084.82;;;13.40;50.58
82668;BME280;72691;51.374;-0.176;2023-11-21T00:06:30;101092.73;;;13.38;50.98
82668;BME280;72691;51.374;-0.176;2023-11-21T00:08:56;101093.92;;;13.39;51.03
82668;BME280;72691;51.374;-0.176;2023-11-21T00:11:21;101098.72;;;13.18;51.14
82668;BME280;72691;51.374;-0.176;2023-11-21T00:13:46;101098.40;;;13.48;51.53
82668;BME280;72691;51.374;-0.176;2023-11-21T00:16:12;101100.32;;;13.77;49.86
82668;BME280;72691;51.374;-0.176;2023-11-21T00:18:37;101099.90;;;13.53;50.24
82668;BME280;72691;51.374;-0.176;2023-11-21T00:21:03;101103.04;;;12.42;53.33
82668;BME280;72691;51.374;-0.176;2023-11-21T00:23:28;101106.76;;;13.36;51.32
82668;BME280;72691;51.374;-0.176;2023-11-21T00:25:54;101109.88;;;12.70;53.07
82668;BME280;72691;51.374;-0.176;2023-11-21T00:28:19;101115.63;;;13.50;51.82
82668;BME280;72691;51.374;-0.176;2023-11-21T00:30:44;101115.73;;;13.77;51.30
82668;BME280;72691;51.374;-0.176;2023-11-21T00:33:10;101115.10;;;14.53;49.07
82668;BME280;72691;51.374;-0.176;2023-11-21T00:35:35;101116.53;;;13.89;50.11
82668;BME280;72691;51.374;-0.176;2023-11-21T00:38:00;101121.46;;;13.23;51.78
82668;BME280;72691;51.374;-0.176;2023-11-21T00:40:26;101124.88;;;13.08;51.79
82668;BME280;72691;51.374;-0.176;2023-11-21T00:42:51;101124.35;;;13.88;50.94
82668;BME280;72691;51.374;-0.176;2023-11-21T00:45:16;101128.24;;;12.98;53.24
82668;BME280;72691;51.374;-0.176;2023-11-21T00:47:42;101134.55;;;13.17;52.64
82668;BME280;72691;51.374;-0.176;2023-11-21T00:50:08;101138.08;;;13.19;52.18
82668;BME280;72691;51.374;-0.176;2023-11-21T00:52:32;101145.51;;;13.49;52.15
82668;BME280;72691;51.374;-0.176;2023-11-21T00:54:58;101146.82;;;13.17;52.12
82668;BME280;72691;51.374;-0.176;2023-11-21T00:57:23;101150.05;;;13.23;52.05
82668;BME280;72691;51.374;-0.176;2023-11-21T00:59:48;101158.28;;;10.90;58.30
82668;BME280;72691;51.374;-0.176;2023-11-21T01:02:14;101154.91;;;12.20;56.17
82668;BME280;72691;51.374;-0.176;2023-11-21T01:04:39;101155.15;;;12.53;55.40
82668;BME280;72691;51.374;-0.176;2023-11-21T01:07:04;101158.32;;;12.64;54.51
82668;BME280;72691;51.374;-0.176;2023-11-21T01:09:30;101160.46;;;12.31;55.36
82668;BME280;72691;51.374;-0.176;2023-11-21T01:11:55;101163.77;;;12.02;56.34
82668;BME280;72691;51.374;-0.176;2023-11-21T01:14:21;101162.33;;;12.65;54.45
82668;BME280;72691;51.374;-0.176;2023-11-21T01:16:46;101162.48;;;13.24;53.29
82668;BME280;72691;51.374;-0.176;2023-11-21T01:19:12;101163.33;;;12.83;54.05
82668;BME280;72691;51.374;-0.176;2023-11-21T01:21:37;101165.63;;;12.79;54.27
82668;BME280;72691;51.374;-0.176;2023-11-21T01:24:03;101166.57;;;12.96;53.43
82668;BME280;72691;51.374;-0.176;2023-11-21T01:26:28;101170.48;;;11.84;56.21
82668;BME280;72691;51.374;-0.176;2023-11-21T01:28:53;101172.00;;;13.67;52.44
82668;BME280;72691;51.374;-0.176;2023-11-21T01:31:18;101175.35;;;13.65;52.38
82668;BME280;72691;51.374;-0.176;2023-11-21T01:33:44;101183.76;;;13.43;53.32
82668;BME280;72691;51.374;-0.176;2023-11-21T01:36:09;101192.54;;;12.93;53.61
82668;BME280;72691;51.374;-0.176;2023-11-21T01:38:34;101194.66;;;13.91;51.85
82668;BME280;72691;51.374;-0.176;2023-11-21T01:40:59;101195.27;;;14.13;51.59
82668;BME280;72691;51.374;-0.176;2023-11-21T01:43:25;101194.93;;;13.79;52.57
82668;BME280;72691;51.374;-0.176;2023-11-21T01:45:50;101201.16;;;13.22;53.20
82668;BME280;72691;51.374;-0.176;2023-11-21T01:48:15;101206.23;;;13.03;54.53
82668;BME280;72691;51.374;-0.176;2023-11-21T01:50:41;101208.70;;;12.92;54.91
82668;BME280;72691;51.374;-0.176;2023-11-21T01:53:06;101210.61;;;13.34;53.71
82668;BME280;72691;51.374;-0.176;2023-11-21T01:55:31;101208.47;;;14.08;51.71
82668;BME280;72691;51.374;-0.176;2023-11-21T01:57:57;101211.89;;;13.41;52.74
82668;BME280;72691;51.374;-0.176;2023-11-21T02:00:22;101215.34;;;13.56;52.61
82668;BME280;72691;51.374;-0.176;2023-11-21T02:02:48;101216.51;;;13.88;51.98
82668;BME280;72691;51.374;-0.176;2023-11-21T02:05:14;101219.79;;;12.59;54.41
82668;BME280;72691;51.374;-0.176;2023-11-21T02:07:38;101224.30;;;13.07;54.03
82668;BME280;72691;51.374;-0.176;2023-11-21T02:10:03;101227.56;;;13.95;52.44
82668;BME280;72691;51.374;-0.176;2023-11-21T02:12:28;101232.13;;;13.49;53.41
82668;BME280;72691;51.374;-0.176;2023-11-21T02:14:54;101236.14;;;14.13;53.03
82668;BME280;72691;51.374;-0.176;2023-11-21T02:17:19;101239.28;;;13.20;54.17
82668;BME280;72691;51.374;-0.176;2023-11-21T02:19:45;101236.54;;;14.30;53.11
82668;BME280;72691;51.374;-0.176;2023-11-21T02:22:11;101237.88;;;13.68;53.20
82668;BME280;72691;51.374;-0.176;2023-11-21T02:24:36;101246.71;;;12.70;55.84
82668;BME280;72691;51.374;-0.176;2023-11-21T02:27:01;101243.09;;;12.77;55.34
82668;BME280;72691;51.374;-0.176;2023-11-21T02:29:26;101244.62;;;14.13;52.76
82668;BME280;72691;51.374;-0.176;2023-11-21T02:31:52;101246.28;;;14.13;53.56
82668;BME280;72691;51.374;-0.176;2023-11-21T02:34:17;101243.73;;;14.88;51.23
82668;BME280;72691;51.374;-0.176;2023-11-21T02:36:43;101248.40;;;14.42;52.39
82668;BME280;72691;51.374;-0.176;2023-11-21T02:39:09;101254.01;;;13.88;53.59
82668;BME280;72691;51.374;-0.176;2023-11-21T02:41:33;101253.88;;;13.33;54.20
82668;BME280;72691;51.374;-0.176;2023-11-21T02:43:58;101261.81;;;13.28;54.34
82668;BME280;72691;51.374;-0.176;2023-11-21T02:46:23;101266.86;;;13.14;55.65
82668;BME280;72691;51.374;-0.176;2023-11-21T02:48:49;101268.76;;;13.15;54.63
82668;BME280;72691;51.374;-0.176;2023-11-21T02:51:15;101274.15;;;12.28;56.26
82668;BME280;72691;51.374;-0.176;2023-11-21T02:53:39;101275.04;;;13.02;56.45
82668;BME280;72691;51.374;-0.176;2023-11-21T02:56:05;101276.60;;;13.32;55.43
82668;BME280;72691;51.374;-0.176;2023-11-21T02:58:30;101276.62;;;13.38;54.65
82668;BME280;72691;51.374;-0.176;2023-11-21T03:00:55;101277.41;;;14.37;52.89
82668;BME280;72691;51.374;-0.176;2023-11-21T03:03:21;101282.20;;;13.63;54.04
82668;BME280;72691;51.374;-0.176;2023-11-21T03:05:46;101288.61;;;13.50;54.33
82668;BME280;72691;51.374;-0.176;2023-11-21T03:08:12;101291.36;;;13.82;53.24
82668;BME280;72691;51.374;-0.176;2023-11-21T03:10:38;101299.91;;;12.97;55.05
82668;BME280;72691;51.374;-0.176;2023-11-21T03:13:02;101298.67;;;14.08;52.59
82668;BME280;72691;51.374;-0.176;2023-11-21T03:15:28;101300.95;;;13.56;53.05
82668;BME280;72691;51.374;-0.176;2023-11-21T03:17:53;101303.59;;;13.49;53.84
82668;BME280;72691;51.374;-0.176;2023-11-21T03:20:19;101307.82;;;13.57;53.14
82668;BME280;72691;51.374;-0.176;2023-11-21T03:22:44;101313.58;;;14.19;52.12
82668;BME280;72691;51.374;-0.176;2023-11-21T03:25:09;101313.04;;;13.68;52.58
82668;BME280;72691;51.374;-0.176;2023-11-21T03:27:35;101315.37;;;13.79;52.10
82668;BME280;72691;51.374;-0.176;2023-11-21T03:30:00;101314.32;;;14.51;51.08
82668;BME280;72691;51.374;-0.176;2023-11-21T03:32:26;101311.73;;;13.59;52.56
82668;BME280;72691;51.374;-0.176;2023-11-21T03:34:56;101314.25;;;13.40;53.27
82668;BME280;72691;51.374;-0.176;2023-11-21T03:37:16;101313.25;;;13.82;52.24
82668;BME280;72691;51.374;-0.176;2023-11-21T03:39:42;101322.43;;;12.34;55.80
82668;BME280;72691;51.374;-0.176;2023-11-21T03:42:07;101324.83;;;13.11;54.45
82668;BME280;72691;51.374;-0.176;2023-11-21T03:44:33;101334.92;;;12.90;54.68
82668;BME280;72691;51.374;-0.176;2023-11-21T03:46:58;101338.09;;;12.36;55.48
82668;BME280;72691;51.374;-0.176;2023-11-21T03:49:23;101337.90;;;12.20;55.08
82668;BME280;72691;51.374;-0.176;2023-11-21T03:51:49;101343.07;;;13.00;54.19
82668;BME280;72691;51.374;-0.176;2023-11-21T03:54:14;101343.41;;;12.80;54.48
82668;BME280;72691;51.374;-0.176;2023-11-21T03:56:40;101341.84;;;14.13;51.90
82668;BME280;72691;51.374;-0.176;2023-11-21T03:59:05;101345.37;;;13.94;51.46
82668;BME280;72691;51.374;-0.176;2023-11-21T04:01:30;101353.81;;;13.35;52.80
82668;BME280;72691;51.374;-0.176;2023-11-21T04:03:56;101356.02;;;13.30;52.93
82668;BME280;72691;51.374;-0.176;2023-11-21T04:06:21;101359.08;;;13.10;52.57
82668;BME280;72691;51.374;-0.176;2023-11-21T04:08:47;101364.22;;;13.46;52.82
82668;BME280;72691;51.374;-0.176;2023-11-21T04:11:12;101368.62;;;13.96;51.90
82668;BME280;72691;51.374;-0.176;2023-11-21T04:13:38;101368.80;;;13.39;52.41
82668;BME280;72691;51.374;-0.176;2023-11-21T04:16:03;101371.72;;;13.49;51.85
82668;BME280;72691;51.374;-0.176;2023-11-21T04:18:28;101381.16;;;12.80;53.95
82668;BME280;72691;51.374;-0.176;2023-11-21T04:20:54;101380.69;;;13.40;53.00
82668;BME280;72691;51.374;-0.176;2023-11-21T04:23:19;101389.96;;;12.68;53.90
82668;BME280;72691;51.374;-0.176;2023-11-21T04:25:45;101390.98;;;13.03;53.62
82668;BME280;72691;51.374;-0.176;2023-11-21T04:28:10;101392.41;;;13.61;52.67
82668;BME280;72691;51.374;-0.176;2023-11-21T04:30:35;101394.15;;;13.60;51.66
82668;BME280;72691;51.374;-0.176;2023-11-21T04:33:01;101406.11;;;12.43;54.96
82668;BME280;72691;51.374;-0.176;2023-11-21T04:35:26;101407.49;;;12.46;54.50
82668;BME280;72691;51.374;-0.176;2023-11-21T04:37:52;101414.41;;;11.86;55.54
82668;BME280;72691;51.374;-0.176;2023-11-21T04:40:17;101420.17;;;11.78;56.28
82668;BME280;72691;51.374;-0.176;2023-11-21T04:42:42;101426.48;;;11.21;57.23
82668;BME280;72691;51.374;-0.176;2023-11-21T04:45:10;101427.06;;;11.70;55.50
82668;BME280;72691;51.374;-0.176;2023-11-21T04:47:33;101429.19;;;11.87;55.19
82668;BME280;72691;51.374;-0.176;2023-11-21T04:49:59;101431.15;;;12.67;53.64
82668;BME280;72691;51.374;-0.176;2023-11-21T04:52:24;101437.27;;;11.28;56.75
82668;BME280;72691;51.374;-0.176;2023-11-21T04:54:49;101436.86;;;12.17;54.75
82668;BME280;72691;51.374;-0.176;2023-11-21T04:57:15;101439.44;;;12.75;53.60
82668;BME280;72691;51.374;-0.176;2023-11-21T04:59:40;101444.33;;;13.60;51.72
82668;BME280;72691;51.374;-0.176;2023-11-21T05:02:06;101444.13;;;13.21;51.84
82668;BME280;72691;51.374;-0.176;2023-11-21T05:04:31;101450.76;;;12.07;54.06
82668;BME280;72691;51.374;-0.176;2023-11-21T05:06:56;101461.65;;;10.12;58.91
82668;BME280;72691;51.374;-0.176;2023-11-21T05:09:22;101463.48;;;11.61;55.82
82668;BME280;72691;51.374;-0.176;2023-11-21T05:11:47;101460.75;;;12.48;53.89
82668;BME280;72691;51.374;-0.176;2023-11-21T05:14:13;101462.28;;;13.08;53.24
82668;BME280;72691;51.374;-0.176;2023-11-21T05:16:38;101464.46;;;11.26;55.71
82668;BME280;72691;51.374;-0.176;2023-11-21T05:19:04;101463.73;;;11.32;55.94
82668;BME280;72691;51.374;-0.176;2023-11-21T05:21:30;101467.04;;;12.51;53.97
82668;BME280;72691;51.374;-0.176;2023-11-21T05:23:55;101469.64;;;12.14;54.75
82668;BME280;72691;51.374;-0.176;2023-11-21T05:26:20;101465.29;;;12.17;53.94
82668;BME280;72691;51.374;-0.176;2023-11-21T05:28:45;101467.76;;;12.47;54.06
82668;BME280;72691;51.374;-0.176;2023-11-21T05:31:10;101473.50;;;12.82;52.79
82668;BME280;72691;51.374;-0.176;2023-11-21T05:33:36;101474.76;;;12.09;53.86
82668;BME280;72691;51.374;-0.176;2023-11-21T05:36:01;101476.37;;;11.31;56.07
82668;BME280;72691;51.374;-0.176;2023-11-21T05:38:27;101478.74;;;11.69;54.77
82668;BME280;72691;51.374;-0.176;2023-11-21T05:40:52;101488.63;;;11.40;55.23
82668;BME280;72691;51.374;-0.176;2023-11-21T05:43:17;101490.25;;;11.91;54.41
82668;BME280;72691;51.374;-0.176;2023-11-21T05:45:43;101496.40;;;11.35;55.30
82668;BME280;72691;51.374;-0.176;2023-11-21T05:48:09;101496.87;;;11.05;55.40
82668;BME280;72691;51.374;-0.176;2023-11-21T05:50:34;101497.89;;;11.84;54.64
82668;BME280;72691;51.374;-0.176;2023-11-21T05:52:59;101510.72;;;11.82;54.61
82668;BME280;72691;51.374;-0.176;2023-11-21T05:55:25;101520.30;;;12.73;52.45
82668;BME280;72691;51.374;-0.176;2023-11-21T05:57:50;101518.19;;;11.52;53.92
82668;BME280;72691;51.374;-0.176;2023-11-21T06:00:16;101519.06;;;12.17;53.25
82668;BME280;72691;51.374;-0.176;2023-11-21T06:02:41;101523.97;;;12.32;51.94
82668;BME280;72691;51.374;-0.176;2023-11-21T06:05:07;101528.90;;;11.60;54.25
82668;BME280;72691;51.374;-0.176;2023-11-21T06:07:32;101537.66;;;10.87;55.29
82668;BME280;72691;51.374;-0.176;2023-11-21T06:09:57;101543.19;;;11.21;54.59
82668;BME280;72691;51.374;-0.176;2023-11-21T06:12:23;101541.36;;;10.67;55.77
82668;BME280;72691;51.374;-0.176;2023-11-21T06:14:48;101550.62;;;11.45;54.29
82668;BME280;72691;51.374;-0.176;2023-11-21T06:17:14;101559.92;;;10.67;55.39
82668;BME280;72691;51.374;-0.176;2023-11-21T06:19:39;101570.08;;;11.36;54.33
82668;BME280;72691;51.374;-0.176;2023-11-21T06:22:04;101579.24;;;11.59;53.79
82668;BME280;72691;51.374;-0.176;2023-11-21T06:24:30;101581.86;;;11.24;54.38
82668;BME280;72691;51.374;-0.176;2023-11-21T06:26:55;101584.00;;;9.36;57.83
82668;BME280;72691;51.374;-0.176;2023-11-21T06:29:20;101584.88;;;9.69;58.46
82668;BME280;72691;51.374;-0.176;2023-11-21T06:31:46;101578.53;;;11.22;54.88
82668;BME280;72691;51.374;-0.176;2023-11-21T06:34:11;101579.77;;;11.07;54.20
82668;BME280;72691;51.374;-0.176;2023-11-21T06:36:37;101593.56;;;10.16;57.21
82668;BME280;72691;51.374;-0.176;2023-11-21T06:39:03;101593.68;;;10.14;56.59
82668;BME280;72691;51.374;-0.176;2023-11-21T06:41:28;101593.57;;;10.16;57.00
82668;BME280;72691;51.374;-0.176;2023-11-21T06:43:53;101596.84;;;9.91;57.41
82668;BME280;72691;51.374;-0.176;2023-11-21T06:46:18;101600.71;;;10.76;55.48
82668;BME280;72691;51.374;-0.176;2023-11-21T06:48:44;101605.63;;;10.88;54.77
82668;BME280;72691;51.374;-0.176;2023-11-21T06:51:09;101603.54;;;11.37;53.83
82668;BME280;72691;51.374;-0.176;2023-11-21T06:53:36;101608.14;;;10.88;54.10
82668;BME280;72691;51.374;-0.176;2023-11-21T06:56:00;101616.53;;;10.34;56.61
82668;BME280;72691;51.374;-0.176;2023-11-21T06:58:25;101616.50;;;10.50;55.94
82668;BME280;72691;51.374;-0.176;2023-11-21T07:00:51;101619.60;;;10.85;54.97
82668;BME280;72691;51.374;-0.176;2023-11-21T07:03:17;101622.41;;;10.15;56.28
82668;BME280;72691;51.374;-0.176;2023-11-21T07:05:42;101633.48;;;9.36;57.71
82668;BME280;72691;51.374;-0.176;2023-11-21T07:08:07;101639.41;;;9.94;57.06
82668;BME280;72691;51.374;-0.176;2023-11-21T07:10:33;101640.71;;;10.55;55.28
82668;BME280;72691;51.374;-0.176;2023-11-21T07:12:58;101646.13;;;10.34;54.95
82668;BME280;72691;51.374;-0.176;2023-11-21T07:15:24;101657.58;;;9.22;58.13
82668;BME280;72691;51.374;-0.176;2023-11-21T07:17:49;101659.98;;;9.96;57.08
82668;BME280;72691;51.374;-0.176;2023-11-21T07:20:14;101663.52;;;9.39;57.59
82668;BME280;72691;51.374;-0.176;2023-11-21T07:22:40;101664.22;;;9.92;56.71
82668;BME280;72691;51.374;-0.176;2023-11-21T07:25:06;101662.48;;;10.82;54.32
82668;BME280;72691;51.374;-0.176;2023-11-21T07:27:31;101670.40;;;10.31;54.41
82668;BME280;72691;51.374;-0.176;2023-11-21T07:29:56;101673.72;;;10.50;53.95
82668;BME280;72691;51.374;-0.176;2023-11-21T07:32:21;101682.17;;;10.63;54.76
82668;BME280;72691;51.374;-0.176;2023-11-21T07:34:47;101689.38;;;8.82;58.33
82668;BME280;72691;51.374;-0.176;2023-11-21T07:37:12;101692.08;;;9.36;57.62
82668;BME280;72691;51.374;-0.176;2023-11-21T07:39:38;101701.99;;;9.60;57.75
82668;BME280;72691;51.374;-0.176;2023-11-21T07:42:04;101703.72;;;9.89;57.28
82668;BME280;72691;51.374;-0.176;2023-11-21T07:44:29;101702.38;;;9.81;56.47
82668;BME280;72691;51.374;-0.176;2023-11-21T07:46:55;101710.04;;;9.90;57.53
82668;BME280;72691;51.374;-0.176;2023-11-21T07:49:20;101713.66;;;10.60;55.42
82668;BME280;72691;51.374;-0.176;2023-11-21T07:51:45;101714.51;;;10.21;55.38
82668;BME280;72691;51.374;-0.176;2023-11-21T07:54:11;101727.11;;;10.19;56.15
82668;BME280;72691;51.374;-0.176;2023-11-21T07:56:36;101729.06;;;10.12;56.45
82668;BME280;72691;51.374;-0.176;2023-11-21T07:59:01;101731.15;;;9.90;56.16
82668;BME280;72691;51.374;-0.176;2023-11-21T08:01:27;101734.13;;;9.40;57.30
82668;BME280;72691;51.374;-0.176;2023-11-21T08:03:52;101734.57;;;9.84;56.57
82668;BME280;72691;51.374;-0.176;2023-11-21T08:06:17;101741.68;;;9.86;55.43
82668;BME280;72691;51.374;-0.176;2023-11-21T08:08:43;101745.16;;;10.84;53.96
82668;BME280;72691;51.374;-0.176;2023-11-21T08:11:08;101745.73;;;11.33;52.39
82668;BME280;72691;51.374;-0.176;2023-11-21T08:13:34;101748.94;;;11.14;53.55
82668;BME280;72691;51.374;-0.176;2023-11-21T08:15:59;101750.32;;;11.84;51.49
82668;BME280;72691;51.374;-0.176;2023-11-21T08:18:25;101754.70;;;11.24;52.27
82668;BME280;72691;51.374;-0.176;2023-11-21T08:20:50;101759.54;;;10.70;53.46
82668;BME280;72691;51.374;-0.176;2023-11-21T08:23:15;101759.48;;;11.07;52.92
82668;BME280;72691;51.374;-0.176;2023-11-21T08:25:41;101766.22;;;10.76;53.34
82668;BME280;72691;51.374;-0.176;2023-11-21T08:28:06;101762.44;;;11.13;52.95
82668;BME280;72691;51.374;-0.176;2023-11-21T08:30:32;101774.12;;;10.33;54.35
82668;BME280;72691;51.374;-0.176;2023-11-21T08:32:57;101768.67;;;11.14;53.06
82668;BME280;72691;51.374;-0.176;2023-11-21T08:35:23;101778.81;;;10.68;54.78
82668;BME280;72691;51.374;-0.176;2023-11-21T08:37:48;101781.02;;;10.36;55.43
82668;BME280;72691;51.374;-0.176;2023-11-21T08:40:13;101788.82;;;10.25;55.42
82668;BME280;72691;51.374;-0.176;2023-11-21T08:42:39;101788.15;;;11.38;53.40
82668;BME280;72691;51.374;-0.176;2023-11-21T08:45:05;101796.77;;;10.04;56.00
82668;BME280;72691;51.374;-0.176;2023-11-21T08:47:29;101800.91;;;9.73;56.47
82668;BME280;72691;51.374;-0.176;2023-11-21T08:49:55;101803.73;;;10.12;56.97
82668;BME280;72691;51.374;-0.176;2023-11-21T08:52:21;101804.95;;;9.76;57.54
82668;BME280;72691;51.374;-0.176;2023-11-21T08:54:46;101804.22;;;10.51;55.34
82668;BME280;72691;51.374;-0.176;2023-11-21T08:57:11;101803.60;;;11.43;53.72
82668;BME280;72691;51.374;-0.176;2023-11-21T08:59:37;101801.36;;;11.07;53.49
82668;BME280;72691;51.374;-0.176;2023-11-21T09:02:02;101807.40;;;10.69;54.42
82668;BME280;72691;51.374;-0.176;2023-11-21T09:04:27;101809.05;;;10.60;54.85
82668;BME280;72691;51.374;-0.176;2023-11-21T09:06:53;101808.28;;;11.29;53.79
82668;BME280;72691;51.374;-0.176;2023-11-21T09:09:18;101824.06;;;10.12;55.59
82668;BME280;72691;51.374;-0.176;2023-11-21T09:11:44;101825.35;;;10.70;54.75
82668;BME280;72691;51.374;-0.176;2023-11-21T09:14:09;101825.46;;;11.16;53.47
82668;BME280;72691;51.374;-0.176;2023-11-21T09:16:35;101830.49;;;10.95;53.63
82668;BME280;72691;51.374;-0.176;2023-11-21T09:19:00;101830.29;;;12.08;51.27
82668;BME280;72691;51.374;-0.176;2023-11-21T09:21:26;101831.72;;;11.56;52.23
82668;BME280;72691;51.374;-0.176;2023-11-21T09:23:51;101829.48;;;11.80;51.60
82668;BME280;72691;51.374;-0.176;2023-11-21T09:26:16;101831.18;;;12.22;50.59
82668;BME280;72691;51.374;-0.176;2023-11-21T09:28:43;101837.23;;;11.21;53.03
82668;BME280;72691;51.374;-0.176;2023-11-21T09:31:07;101845.13;;;9.04;56.83
82668;BME280;72691;51.374;-0.176;2023-11-21T09:33:32;101846.35;;;10.41;55.86
82668;BME280;72691;51.374;-0.176;2023-11-21T09:35:58;101848.05;;;11.06;54.47
82668;BME280;72691;51.374;-0.176;2023-11-21T09:38:23;101845.67;;;11.75;52.79
82668;BME280;72691;51.374;-0.176;2023-11-21T09:40:49;101851.76;;;11.71;52.26
82668;BME280;72691;51.374;-0.176;2023-11-21T09:43:16;101854.46;;;10.70;53.50
82668;BME280;72691;51.374;-0.176;2023-11-21T09:45:40;101858.74;;;11.60;52.55
82668;BME280;72691;51.374;-0.176;2023-11-21T09:48:05;101862.80;;;11.47;52.46
82668;BME280;72691;51.374;-0.176;2023-11-21T09:50:33;101859.33;;;11.51;52.22
82668;BME280;72691;51.374;-0.176;2023-11-21T09:53:03;101858.56;;;11.89;51.85
82668;BME280;72691;51.374;-0.176;2023-11-21T09:55:21;101863.40;;;11.06;52.68
82668;BME280;72691;51.374;-0.176;2023-11-21T09:57:47;101871.85;;;11.04;53.50
82668;BME280;72691;51.374;-0.176;2023-11-21T10:00:13;101865.35;;;11.82;52.45
82668;BME280;72691;51.374;-0.176;2023-11-21T10:02:38;101868.70;;;11.16;52.90
82668;BME280;72691;51.374;-0.176;2023-11-21T10:05:03;101876.72;;;10.62;54.64
82668;BME280;72691;51.374;-0.176;2023-11-21T10:07:28;101877.68;;;10.94;54.11
82668;BME280;72691;51.374;-0.176;2023-11-21T10:09:55;101879.60;;;11.50;53.12
82668;BME280;72691;51.374;-0.176;2023-11-21T10:12:20;101886.46;;;11.20;54.95
82668;BME280;72691;51.374;-0.176;2023-11-21T10:14:48;101885.17;;;11.06;54.23
82668;BME280;72691;51.374;-0.176;2023-11-21T10:17:10;101881.77;;;11.70;53.31
82668;BME280;72691;51.374;-0.176;2023-11-21T10:19:36;101887.80;;;11.07;54.25
82668;BME280;72691;51.374;-0.176;2023-11-21T10:22:01;101890.89;;;10.17;55.97
82668;BME280;72691;51.374;-0.176;2023-11-21T10:24:26;101896.80;;;10.02;57.08
82668;BME280;72691;51.374;-0.176;2023-11-21T10:26:51;101900.29;;;10.38;56.53
82668;BME280;72691;51.374;-0.176;2023-11-21T10:29:17;101899.76;;;10.44;57.33
82668;BME280;72691;51.374;-0.176;2023-11-21T10:31:42;101898.36;;;10.40;55.94
82668;BME280;72691;51.374;-0.176;2023-11-21T10:34:13;101901.51;;;10.64;56.04
82668;BME280;72691;51.374;-0.176;2023-11-21T10:36:34;101905.72;;;9.85;56.84
82668;BME280;72691;51.374;-0.176;2023-11-21T10:39:00;101908.08;;;10.39;57.68
82668;BME280;72691;51.374;-0.176;2023-11-21T10:41:24;101899.39;;;10.92;56.58
82668;BME280;72691;51.374;-0.176;2023-11-21T10:43:53;101896.22;;;11.42;54.89
82668;BME280;72691;51.374;-0.176;2023-11-21T10:46:15;101890.97;;;11.98;53.57
82668;BME280;72691;51.374;-0.176;2023-11-21T10:48:41;101895.64;;;11.43;54.26
82668;BME280;72691;51.374;-0.176;2023-11-21T10:51:07;101897.79;;;12.14;53.13
82668;BME280;72691;51.374;-0.176;2023-11-21T10:53:31;101908.20;;;11.30;55.04
82668;BME280;72691;51.374;-0.176;2023-11-21T10:56:02;101912.04;;;10.89;55.98
82668;BME280;72691;51.374;-0.176;2023-11-21T10:58:22;101911.22;;;11.44;55.21
82668;BME280;72691;51.374;-0.176;2023-11-21T11:00:47;101910.96;;;11.18;55.93
82668;BME280;72691;51.374;-0.176;2023-11-21T11:03:13;101906.65;;;12.46;53.13
82668;BME280;72691;51.374;-0.176;2023-11-21T11:05:38;101903.27;;;12.23;53.04
82668;BME280;72691;51.374;-0.176;2023-11-21T11:08:05;101899.80;;;11.71;54.46
82668;BME280;72691;51.374;-0.176;2023-11-21T11:10:29;101901.48;;;11.52;55.61
82668;BME280;72691;51.374;-0.176;2023-11-21T11:12:55;101905.94;;;11.30;56.02
82668;BME280;72691;51.374;-0.176;2023-11-21T11:15:20;101907.65;;;11.21;56.53
82668;BME280;72691;51.374;-0.176;2023-11-21T11:17:45;101905.74;;;11.89;54.67
82668;BME280;72691;51.374;-0.176;2023-11-21T11:20:13;101901.41;;;12.54;54.09
82668;BME280;72691;51.374;-0.176;2023-11-21T11:22:39;101898.78;;;13.11;52.63
82668;BME280;72691;51.374;-0.176;2023-11-21T11:25:19;101901.67;;;11.94;53.60
82668;BME280;72691;51.374;-0.176;2023-11-21T11:27:34;101907.04;;;12.85;52.54
82668;BME280;72691;51.374;-0.176;2023-11-21T11:30:00;101909.74;;;12.73;52.66
82668;BME280;72691;51.374;-0.176;2023-11-21T11:32:24;101906.77;;;13.26;50.95
82668;BME280;72691;51.374;-0.176;2023-11-21T11:34:48;101911.53;;;13.15;52.05
82668;BME280;72691;51.374;-0.176;2023-11-21T11:37:09;101909.56;;;13.17;51.79
82668;BME280;72691;51.374;-0.176;2023-11-21T11:39:36;101910.66;;;13.75;50.65
82668;BME280;72691;51.374;-0.176;2023-11-21T11:42:02;101910.47;;;13.18;51.77
82668;BME280;72691;51.374;-0.176;2023-11-21T11:46:53;101919.90;;;12.58;52.84
82668;BME280;72691;51.374;-0.176;2023-11-21T11:49:24;101922.19;;;12.58;53.25
82668;BME280;72691;51.374;-0.176;2023-11-21T11:51:41;101920.43;;;13.00;52.85
82668;BME280;72691;51.374;-0.176;2023-11-21T11:54:06;101926.71;;;11.70;54.98
82668;BME280;72691;51.374;-0.176;2023-11-21T11:56:32;101928.81;;;12.51;54.51
82668;BME280;72691;51.374;-0.176;2023-11-21T11:58:58;101928.55;;;12.94;53.15
82668;BME280;72691;51.374;-0.176;2023-11-21T12:01:24;101927.73;;;13.05;52.36
82668;BME280;72691;51.374;-0.176;2023-11-21T12:06:13;101930.69;;;12.74;53.07
82668;BME280;72691;51.374;-0.176;2023-11-21T12:08:38;101939.61;;;11.55;55.85
82668;BME280;72691;51.374;-0.176;2023-11-21T12:11:05;101940.89;;;11.53;56.53
82668;BME280;72691;51.374;-0.176;2023-11-21T12:13:29;101933.61;;;13.59;52.84
82668;BME280;72691;51.374;-0.176;2023-11-21T12:15:55;101942.09;;;12.62;53.96
82668;BME280;72691;51.374;-0.176;2023-11-21T12:18:20;101946.42;;;12.22;54.32
82668;BME280;72691;51.374;-0.176;2023-11-21T12:20:45;101949.13;;;12.64;54.23
82668;BME280;72691;51.374;-0.176;2023-11-21T12:23:11;101953.69;;;13.02;53.46
82668;BME280;72691;51.374;-0.176;2023-11-21T12:25:36;101956.70;;;13.18;52.82
82668;BME280;72691;51.374;-0.176;2023-11-21T12:28:02;101962.87;;;13.41;53.13
82668;BME280;72691;51.374;-0.176;2023-11-21T12:30:29;101971.33;;;13.12;53.60
82668;BME280;72691;51.374;-0.176;2023-11-21T12:32:54;101970.30;;;13.19;52.59
82668;BME280;72691;51.374;-0.176;2023-11-21T12:35:18;101975.36;;;13.34;53.11